sensor_id;sensor_type;location;lat;lon;timestamp;P1;durP1;ratioP1;P2;durP2;ratioP2
6145;SDS011;3104;50.348;7.620;2022-07-23T00:00:08;10.03;;;9.13;;
6145;SDS011;3104;50.348;7.620;2022-07-23T00:02:34;11.33;;;10.23;;
6145;SDS011;3104;50.348;7.620;2022-07-23T00:05:00;11.63;;;10.60;;
6145;SDS011;3104;50.348;7.620;2022-07-23T00:07:25;10.70;;;9.83;;
6145;SDS011;3104;50.348;7.620;2022-07-23T00:09:51;10.90;;;9.60;;
6145;SDS011;3104;50.348;7.620;2022-07-23T00:12:17;10.23;;;9.43;;
6145;SDS011;3104;50.348;7.620;2022-07-23T00:14:42;12.80;;;11.70;;
6145;SDS011;3104;50.348;7.620;2022-07-23T00:17:08;12.03;;;11.03;;
6145;SDS011;3104;50.348;7.620;2022-07-23T00:19:33;12.10;;;10.90;;
6145;SDS011;3104;50.348;7.620;2022-07-23T00:21:59;10.87;;;9.73;;
6145;SDS011;3104;50.348;7.620;2022-07-23T00:24:24;12.40;;;11.40;;
6145;SDS011;3104;50.348;7.620;2022-07-23T00:26:50;11.93;;;10.93;;
6145;SDS011;3104;50.348;7.620;2022-07-23T00:29:16;12.30;;;11.23;;
6145;SDS011;3104;50.348;7.620;2022-07-23T00:31:41;11.73;;;10.73;;
6145;SDS011;3104;50.348;7.620;2022-07-23T00:34:07;11.40;;;10.40;;
6145;SDS011;3104;50.348;7.620;2022-07-23T00:36:32;10.80;;;9.90;;
6145;SDS011;3104;50.348;7.620;2022-07-23T00:38:58;12.23;;;11.10;;
6145;SDS011;3104;50.348;7.620;2022-07-23T00:41:23;10.37;;;9.47;;
6145;SDS011;3104;50.348;7.620;2022-07-23T00:43:49;12.03;;;10.97;;
6145;SDS011;3104;50.348;7.620;2022-07-23T00:46:21;11.93;;;10.83;;
6145;SDS011;3104;50.348;7.620;2022-07-23T00:48:47;12.30;;;11.07;;
6145;SDS011;3104;50.348;7.620;2022-07-23T00:51:14;12.03;;;10.93;;
6145;SDS011;3104;50.348;7.620;2022-07-23T00:53:41;11.67;;;10.63;;
6145;SDS011;3104;50.348;7.620;2022-07-23T00:56:07;14.30;;;11.43;;
6145;SDS011;3104;50.348;7.620;2022-07-23T00:58:34;11.53;;;10.63;;
6145;SDS011;3104;50.348;7.620;2022-07-23T01:01:00;12.30;;;11.10;;
6145;SDS011;3104;50.348;7.620;2022-07-23T01:03:26;12.00;;;10.80;;
6145;SDS011;3104;50.348;7.620;2022-07-23T01:05:51;10.80;;;9.80;;
6145;SDS011;3104;50.348;7.620;2022-07-23T01:08:18;11.13;;;10.10;;
6145;SDS011;3104;50.348;7.620;2022-07-23T01:10:44;12.30;;;11.03;;
6145;SDS011;3104;50.348;7.620;2022-07-23T01:13:10;10.30;;;9.40;;
6145;SDS011;3104;50.348;7.620;2022-07-23T01:15:36;11.03;;;10.07;;
6145;SDS011;3104;50.348;7.620;2022-07-23T01:18:03;11.73;;;10.63;;
6145;SDS011;3104;50.348;7.620;2022-07-23T01:20:30;12.40;;;11.30;;
6145;SDS011;3104;50.348;7.620;2022-07-23T01:22:57;12.73;;;11.60;;
6145;SDS011;3104;50.348;7.620;2022-07-23T01:25:22;12.70;;;11.40;;
6145;SDS011;3104;50.348;7.620;2022-07-23T01:27:48;11.40;;;10.30;;
6145;SDS011;3104;50.348;7.620;2022-07-23T01:30:15;13.03;;;11.27;;
6145;SDS011;3104;50.348;7.620;2022-07-23T01:32:41;11.67;;;10.50;;
6145;SDS011;3104;50.348;7.620;2022-07-23T01:35:07;12.30;;;11.10;;
6145;SDS011;3104;50.348;7.620;2022-07-23T01:37:34;12.83;;;11.63;;
6145;SDS011;3104;50.348;7.620;2022-07-23T01:40:00;11.67;;;10.67;;
6145;SDS011;3104;50.348;7.620;2022-07-23T01:42:25;12.10;;;10.83;;
6145;SDS011;3104;50.348;7.620;2022-07-23T01:44:51;13.30;;;12.00;;
6145;SDS011;3104;50.348;7.620;2022-07-23T01:47:17;12.27;;;11.17;;
6145;SDS011;3104;50.348;7.620;2022-07-23T01:49:42;13.43;;;12.03;;
6145;SDS011;3104;50.348;7.620;2022-07-23T01:52:08;12.83;;;11.60;;
6145;SDS011;3104;50.348;7.620;2022-07-23T01:54:35;13.10;;;11.13;;
6145;SDS011;3104;50.348;7.620;2022-07-23T01:57:04;15.90;;;13.47;;
6145;SDS011;3104;50.348;7.620;2022-07-23T01:59:30;12.20;;;11.10;;
6145;SDS011;3104;50.348;7.620;2022-07-23T02:01:55;13.37;;;12.17;;
6145;SDS011;3104;50.348;7.620;2022-07-23T02:04:22;15.23;;;11.50;;
6145;SDS011;3104;50.348;7.620;2022-07-23T02:06:48;14.57;;;13.00;;
6145;SDS011;3104;50.348;7.620;2022-07-23T02:09:14;12.80;;;11.17;;
6145;SDS011;3104;50.348;7.620;2022-07-23T02:11:40;13.17;;;11.90;;
6145;SDS011;3104;50.348;7.620;2022-07-23T02:14:05;13.13;;;11.93;;
6145;SDS011;3104;50.348;7.620;2022-07-23T02:16:31;15.07;;;13.67;;
6145;SDS011;3104;50.348;7.620;2022-07-23T02:18:57;12.00;;;10.80;;
6145;SDS011;3104;50.348;7.620;2022-07-23T02:21:22;12.83;;;11.60;;
6145;SDS011;3104;50.348;7.620;2022-07-23T02:23:48;14.07;;;12.67;;
6145;SDS011;3104;50.348;7.620;2022-07-23T02:26:14;13.53;;;11.80;;
6145;SDS011;3104;50.348;7.620;2022-07-23T02:28:39;10.90;;;9.97;;
6145;SDS011;3104;50.348;7.620;2022-07-23T02:31:05;13.60;;;12.20;;
6145;SDS011;3104;50.348;7.620;2022-07-23T02:33:31;13.80;;;12.40;;
6145;SDS011;3104;50.348;7.620;2022-07-23T02:35:57;12.63;;;11.50;;
6145;SDS011;3104;50.348;7.620;2022-07-23T02:38:23;14.17;;;12.73;;
6145;SDS011;3104;50.348;7.620;2022-07-23T02:40:49;13.83;;;12.43;;
6145;SDS011;3104;50.348;7.620;2022-07-23T02:43:14;13.87;;;12.47;;
6145;SDS011;3104;50.348;7.620;2022-07-23T02:45:40;13.27;;;11.97;;
6145;SDS011;3104;50.348;7.620;2022-07-23T02:48:06;14.30;;;11.33;;
6145;SDS011;3104;50.348;7.620;2022-07-23T02:50:31;13.10;;;11.90;;
6145;SDS011;3104;50.348;7.620;2022-07-23T02:52:57;12.00;;;10.90;;
6145;SDS011;3104;50.348;7.620;2022-07-23T02:55:22;13.33;;;12.17;;
6145;SDS011;3104;50.348;7.620;2022-07-23T02:57:48;13.47;;;12.20;;
6145;SDS011;3104;50.348;7.620;2022-07-23T03:00:14;12.83;;;11.73;;
6145;SDS011;3104;50.348;7.620;2022-07-23T03:02:39;11.53;;;10.50;;
6145;SDS011;3104;50.348;7.620;2022-07-23T03:05:05;13.00;;;11.80;;
6145;SDS011;3104;50.348;7.620;2022-07-23T03:07:31;13.20;;;12.10;;
6145;SDS011;3104;50.348;7.620;2022-07-23T03:09:57;12.33;;;11.20;;
6145;SDS011;3104;50.348;7.620;2022-07-23T03:12:22;14.10;;;11.03;;
6145;SDS011;3104;50.348;7.620;2022-07-23T03:14:48;12.23;;;11.13;;
6145;SDS011;3104;50.348;7.620;2022-07-23T03:17:13;12.10;;;11.00;;
6145;SDS011;3104;50.348;7.620;2022-07-23T03:19:39;12.30;;;11.10;;
6145;SDS011;3104;50.348;7.620;2022-07-23T03:22:05;11.10;;;10.13;;
6145;SDS011;3104;50.348;7.620;2022-07-23T03:24:31;11.70;;;10.63;;
6145;SDS011;3104;50.348;7.620;2022-07-23T03:27:15;14.03;;;12.57;;
6145;SDS011;3104;50.348;7.620;2022-07-23T03:29:40;11.10;;;10.13;;
6145;SDS011;3104;50.348;7.620;2022-07-23T03:32:06;11.67;;;10.47;;
6145;SDS011;3104;50.348;7.620;2022-07-23T03:34:32;11.93;;;10.57;;
6145;SDS011;3104;50.348;7.620;2022-07-23T03:36:57;11.80;;;10.67;;
6145;SDS011;3104;50.348;7.620;2022-07-23T03:39:23;11.37;;;10.30;;
6145;SDS011;3104;50.348;7.620;2022-07-23T03:41:49;16.40;;;11.67;;
6145;SDS011;3104;50.348;7.620;2022-07-23T03:44:14;11.20;;;10.20;;
6145;SDS011;3104;50.348;7.620;2022-07-23T03:46:40;11.50;;;10.50;;
6145;SDS011;3104;50.348;7.620;2022-07-23T03:49:06;11.20;;;10.20;;
6145;SDS011;3104;50.348;7.620;2022-07-23T03:51:31;13.80;;;11.47;;
6145;SDS011;3104;50.348;7.620;2022-07-23T03:53:57;11.73;;;10.60;;
6145;SDS011;3104;50.348;7.620;2022-07-23T03:56:23;11.83;;;10.40;;
6145;SDS011;3104;50.348;7.620;2022-07-23T03:58:49;14.03;;;12.47;;
6145;SDS011;3104;50.348;7.620;2022-07-23T04:01:14;13.93;;;12.67;;
6145;SDS011;3104;50.348;7.620;2022-07-23T04:03:40;15.10;;;11.70;;
6145;SDS011;3104;50.348;7.620;2022-07-23T04:06:06;12.63;;;11.50;;
6145;SDS011;3104;50.348;7.620;2022-07-23T04:08:31;14.80;;;13.40;;
6145;SDS011;3104;50.348;7.620;2022-07-23T04:10:57;13.90;;;12.50;;
6145;SDS011;3104;50.348;7.620;2022-07-23T04:13:23;13.60;;;12.27;;
6145;SDS011;3104;50.348;7.620;2022-07-23T04:15:49;13.07;;;11.80;;
6145;SDS011;3104;50.348;7.620;2022-07-23T04:18:15;12.97;;;11.73;;
6145;SDS011;3104;50.348;7.620;2022-07-23T04:20:46;17.00;;;11.77;;
6145;SDS011;3104;50.348;7.620;2022-07-23T04:23:12;14.50;;;13.20;;
6145;SDS011;3104;50.348;7.620;2022-07-23T04:25:38;13.97;;;12.67;;
6145;SDS011;3104;50.348;7.620;2022-07-23T04:28:03;13.80;;;12.60;;
6145;SDS011;3104;50.348;7.620;2022-07-23T04:30:29;14.10;;;12.70;;
6145;SDS011;3104;50.348;7.620;2022-07-23T04:32:55;12.97;;;11.83;;
6145;SDS011;3104;50.348;7.620;2022-07-23T04:35:20;13.00;;;11.60;;
6145;SDS011;3104;50.348;7.620;2022-07-23T04:37:46;15.73;;;12.23;;
6145;SDS011;3104;50.348;7.620;2022-07-23T04:40:12;12.77;;;11.47;;
6145;SDS011;3104;50.348;7.620;2022-07-23T04:42:38;14.10;;;12.87;;
6145;SDS011;3104;50.348;7.620;2022-07-23T04:45:04;13.53;;;12.33;;
6145;SDS011;3104;50.348;7.620;2022-07-23T04:47:30;14.10;;;12.83;;
6145;SDS011;3104;50.348;7.620;2022-07-23T04:49:56;16.13;;;13.23;;
6145;SDS011;3104;50.348;7.620;2022-07-23T04:52:22;18.90;;;14.40;;
6145;SDS011;3104;50.348;7.620;2022-07-23T04:54:47;15.90;;;14.40;;
6145;SDS011;3104;50.348;7.620;2022-07-23T04:57:13;15.83;;;14.10;;
6145;SDS011;3104;50.348;7.620;2022-07-23T04:59:39;14.30;;;13.00;;
6145;SDS011;3104;50.348;7.620;2022-07-23T05:02:05;15.47;;;14.10;;
6145;SDS011;3104;50.348;7.620;2022-07-23T05:04:30;14.93;;;13.60;;
6145;SDS011;3104;50.348;7.620;2022-07-23T05:06:57;13.40;;;12.10;;
6145;SDS011;3104;50.348;7.620;2022-07-23T05:09:23;13.90;;;12.60;;
6145;SDS011;3104;50.348;7.620;2022-07-23T05:11:48;14.83;;;13.33;;
6145;SDS011;3104;50.348;7.620;2022-07-23T05:14:14;14.63;;;13.20;;
6145;SDS011;3104;50.348;7.620;2022-07-23T05:16:40;20.07;;;13.70;;
6145;SDS011;3104;50.348;7.620;2022-07-23T05:19:05;16.73;;;15.03;;
6145;SDS011;3104;50.348;7.620;2022-07-23T05:21:31;15.53;;;13.80;;
6145;SDS011;3104;50.348;7.620;2022-07-23T05:23:57;18.00;;;16.10;;
6145;SDS011;3104;50.348;7.620;2022-07-23T05:26:22;15.77;;;14.20;;
6145;SDS011;3104;50.348;7.620;2022-07-23T05:28:48;16.80;;;15.17;;
6145;SDS011;3104;50.348;7.620;2022-07-23T05:31:13;18.10;;;16.50;;
6145;SDS011;3104;50.348;7.620;2022-07-23T05:33:39;16.63;;;14.90;;
6145;SDS011;3104;50.348;7.620;2022-07-23T05:36:05;18.07;;;16.17;;
6145;SDS011;3104;50.348;7.620;2022-07-23T05:38:31;16.23;;;14.73;;
6145;SDS011;3104;50.348;7.620;2022-07-23T05:40:57;15.00;;;13.50;;
6145;SDS011;3104;50.348;7.620;2022-07-23T05:43:23;15.93;;;13.93;;
6145;SDS011;3104;50.348;7.620;2022-07-23T05:45:48;13.43;;;12.13;;
6145;SDS011;3104;50.348;7.620;2022-07-23T05:48:14;15.23;;;13.83;;
6145;SDS011;3104;50.348;7.620;2022-07-23T05:50:40;16.57;;;14.87;;
6145;SDS011;3104;50.348;7.620;2022-07-23T05:53:05;17.10;;;15.30;;
6145;SDS011;3104;50.348;7.620;2022-07-23T05:55:31;15.00;;;13.70;;
6145;SDS011;3104;50.348;7.620;2022-07-23T05:57:57;16.37;;;14.87;;
6145;SDS011;3104;50.348;7.620;2022-07-23T06:00:23;16.83;;;15.13;;
6145;SDS011;3104;50.348;7.620;2022-07-23T06:02:50;16.43;;;14.93;;
6145;SDS011;3104;50.348;7.620;2022-07-23T06:05:15;18.43;;;16.67;;
6145;SDS011;3104;50.348;7.620;2022-07-23T06:07:42;14.70;;;13.20;;
6145;SDS011;3104;50.348;7.620;2022-07-23T06:10:07;14.87;;;13.30;;
6145;SDS011;3104;50.348;7.620;2022-07-23T06:12:33;14.27;;;12.77;;
6145;SDS011;3104;50.348;7.620;2022-07-23T06:14:59;13.60;;;12.30;;
6145;SDS011;3104;50.348;7.620;2022-07-23T06:17:25;13.60;;;12.30;;
6145;SDS011;3104;50.348;7.620;2022-07-23T06:19:51;12.87;;;11.70;;
6145;SDS011;3104;50.348;7.620;2022-07-23T06:22:17;13.10;;;11.90;;
6145;SDS011;3104;50.348;7.620;2022-07-23T06:24:43;12.53;;;11.20;;
6145;SDS011;3104;50.348;7.620;2022-07-23T06:27:09;12.67;;;11.40;;
6145;SDS011;3104;50.348;7.620;2022-07-23T06:29:34;11.90;;;10.80;;
6145;SDS011;3104;50.348;7.620;2022-07-23T06:32:00;11.50;;;10.50;;
6145;SDS011;3104;50.348;7.620;2022-07-23T06:34:26;14.60;;;12.30;;
6145;SDS011;3104;50.348;7.620;2022-07-23T06:36:51;18.60;;;13.73;;
6145;SDS011;3104;50.348;7.620;2022-07-23T06:39:17;14.40;;;13.10;;
6145;SDS011;3104;50.348;7.620;2022-07-23T06:41:43;14.90;;;13.40;;
6145;SDS011;3104;50.348;7.620;2022-07-23T06:44:08;15.70;;;13.23;;
6145;SDS011;3104;50.348;7.620;2022-07-23T06:46:34;13.37;;;12.13;;
6145;SDS011;3104;50.348;7.620;2022-07-23T06:49:00;12.30;;;11.20;;
6145;SDS011;3104;50.348;7.620;2022-07-23T06:51:26;13.60;;;12.23;;
6145;SDS011;3104;50.348;7.620;2022-07-23T06:53:51;11.60;;;10.50;;
6145;SDS011;3104;50.348;7.620;2022-07-23T06:56:17;11.40;;;9.40;;
6145;SDS011;3104;50.348;7.620;2022-07-23T06:58:42;11.70;;;10.57;;
6145;SDS011;3104;50.348;7.620;2022-07-23T07:01:08;9.10;;;8.40;;
6145;SDS011;3104;50.348;7.620;2022-07-23T07:03:34;10.10;;;9.23;;
6145;SDS011;3104;50.348;7.620;2022-07-23T07:05:59;9.67;;;8.83;;
6145;SDS011;3104;50.348;7.620;2022-07-23T07:08:25;11.40;;;10.30;;
6145;SDS011;3104;50.348;7.620;2022-07-23T07:10:50;10.30;;;9.40;;
6145;SDS011;3104;50.348;7.620;2022-07-23T07:13:16;10.10;;;9.10;;
6145;SDS011;3104;50.348;7.620;2022-07-23T07:15:42;9.80;;;9.00;;
6145;SDS011;3104;50.348;7.620;2022-07-23T07:18:07;11.37;;;10.27;;
6145;SDS011;3104;50.348;7.620;2022-07-23T07:20:33;9.63;;;8.87;;
6145;SDS011;3104;50.348;7.620;2022-07-23T07:22:59;10.07;;;9.27;;
6145;SDS011;3104;50.348;7.620;2022-07-23T07:25:24;10.57;;;9.63;;
6145;SDS011;3104;50.348;7.620;2022-07-23T07:27:50;10.70;;;9.60;;
6145;SDS011;3104;50.348;7.620;2022-07-23T07:30:16;11.87;;;8.53;;
6145;SDS011;3104;50.348;7.620;2022-07-23T07:32:41;10.73;;;9.73;;
6145;SDS011;3104;50.348;7.620;2022-07-23T07:35:07;10.47;;;9.50;;
6145;SDS011;3104;50.348;7.620;2022-07-23T07:37:33;11.13;;;10.13;;
6145;SDS011;3104;50.348;7.620;2022-07-23T07:39:59;10.30;;;9.30;;
6145;SDS011;3104;50.348;7.620;2022-07-23T07:42:26;10.30;;;9.50;;
6145;SDS011;3104;50.348;7.620;2022-07-23T07:44:52;10.87;;;9.87;;
6145;SDS011;3104;50.348;7.620;2022-07-23T07:47:17;9.90;;;8.90;;
6145;SDS011;3104;50.348;7.620;2022-07-23T07:49:43;9.70;;;8.90;;
6145;SDS011;3104;50.348;7.620;2022-07-23T07:52:09;11.10;;;9.93;;
6145;SDS011;3104;50.348;7.620;2022-07-23T07:54:35;11.63;;;9.93;;
6145;SDS011;3104;50.348;7.620;2022-07-23T07:57:01;11.70;;;10.63;;
6145;SDS011;3104;50.348;7.620;2022-07-23T07:59:27;11.40;;;10.40;;
6145;SDS011;3104;50.348;7.620;2022-07-23T08:01:53;11.70;;;10.50;;
6145;SDS011;3104;50.348;7.620;2022-07-23T08:04:19;11.33;;;10.10;;
6145;SDS011;3104;50.348;7.620;2022-07-23T08:06:45;10.77;;;9.63;;
6145;SDS011;3104;50.348;7.620;2022-07-23T08:09:10;13.40;;;12.10;;
6145;SDS011;3104;50.348;7.620;2022-07-23T08:11:36;11.53;;;10.53;;
6145;SDS011;3104;50.348;7.620;2022-07-23T08:14:02;12.77;;;11.67;;
6145;SDS011;3104;50.348;7.620;2022-07-23T08:16:27;12.40;;;11.13;;
6145;SDS011;3104;50.348;7.620;2022-07-23T08:18:53;11.30;;;10.23;;
6145;SDS011;3104;50.348;7.620;2022-07-23T08:21:19;10.27;;;9.37;;
6145;SDS011;3104;50.348;7.620;2022-07-23T08:23:44;10.30;;;9.30;;
6145;SDS011;3104;50.348;7.620;2022-07-23T08:26:10;10.70;;;9.60;;
6145;SDS011;3104;50.348;7.620;2022-07-23T08:28:36;10.50;;;9.50;;
6145;SDS011;3104;50.348;7.620;2022-07-23T08:31:02;12.30;;;9.17;;
6145;SDS011;3104;50.348;7.620;2022-07-23T08:33:27;11.00;;;9.90;;
6145;SDS011;3104;50.348;7.620;2022-07-23T08:35:53;10.10;;;9.30;;
6145;SDS011;3104;50.348;7.620;2022-07-23T08:38:20;11.73;;;10.73;;
6145;SDS011;3104;50.348;7.620;2022-07-23T08:40:48;11.20;;;10.23;;
6145;SDS011;3104;50.348;7.620;2022-07-23T08:43:17;9.60;;;8.90;;
6145;SDS011;3104;50.348;7.620;2022-07-23T08:45:50;9.97;;;8.97;;
6145;SDS011;3104;50.348;7.620;2022-07-23T08:48:18;10.93;;;9.93;;
6145;SDS011;3104;50.348;7.620;2022-07-23T08:50:46;9.93;;;8.93;;
6145;SDS011;3104;50.348;7.620;2022-07-23T08:53:19;10.00;;;9.20;;
6145;SDS011;3104;50.348;7.620;2022-07-23T08:55:47;10.23;;;9.43;;
6145;SDS011;3104;50.348;7.620;2022-07-23T08:58:15;9.47;;;8.67;;
6145;SDS011;3104;50.348;7.620;2022-07-23T09:00:41;9.93;;;8.97;;
6145;SDS011;3104;50.348;7.620;2022-07-23T09:03:07;10.30;;;9.23;;
6145;SDS011;3104;50.348;7.620;2022-07-23T09:05:39;12.07;;;9.70;;
6145;SDS011;3104;50.348;7.620;2022-07-23T09:08:47;10.27;;;9.10;;
6145;SDS011;3104;50.348;7.620;2022-07-23T09:11:02;9.73;;;8.97;;
6145;SDS011;3104;50.348;7.620;2022-07-23T09:13:33;9.23;;;8.43;;
6145;SDS011;3104;50.348;7.620;2022-07-23T09:19:01;9.70;;;8.80;;
6145;SDS011;3104;50.348;7.620;2022-07-23T09:21:34;8.70;;;7.90;;
6145;SDS011;3104;50.348;7.620;2022-07-23T09:24:02;9.17;;;8.37;;
6145;SDS011;3104;50.348;7.620;2022-07-23T09:31:48;8.57;;;7.87;;
6145;SDS011;3104;50.348;7.620;2022-07-23T09:37:08;10.07;;;9.10;;
6145;SDS011;3104;50.348;7.620;2022-07-23T09:39:38;9.03;;;8.23;;
6145;SDS011;3104;50.348;7.620;2022-07-23T09:42:15;8.13;;;7.57;;
6145;SDS011;3104;50.348;7.620;2022-07-23T09:44:49;7.93;;;7.33;;
6145;SDS011;3104;50.348;7.620;2022-07-23T09:47:20;8.77;;;7.97;;
6145;SDS011;3104;50.348;7.620;2022-07-23T09:52:34;7.23;;;6.53;;
6145;SDS011;3104;50.348;7.620;2022-07-23T09:55:02;7.53;;;6.97;;
6145;SDS011;3104;50.348;7.620;2022-07-23T09:57:29;6.83;;;6.33;;
6145;SDS011;3104;50.348;7.620;2022-07-23T09:59:57;6.50;;;5.90;;
6145;SDS011;3104;50.348;7.620;2022-07-23T10:02:25;6.40;;;5.83;;
6145;SDS011;3104;50.348;7.620;2022-07-23T10:04:53;6.33;;;5.70;;
6145;SDS011;3104;50.348;7.620;2022-07-23T10:07:21;6.07;;;5.67;;
6145;SDS011;3104;50.348;7.620;2022-07-23T10:09:51;5.53;;;5.20;;
6145;SDS011;3104;50.348;7.620;2022-07-23T10:12:21;6.30;;;5.60;;
6145;SDS011;3104;50.348;7.620;2022-07-23T10:15:06;6.60;;;6.10;;
6145;SDS011;3104;50.348;7.620;2022-07-23T10:17:32;6.30;;;5.80;;
6145;SDS011;3104;50.348;7.620;2022-07-23T10:19:59;5.90;;;5.40;;
6145;SDS011;3104;50.348;7.620;2022-07-23T10:22:29;6.50;;;5.90;;
6145;SDS011;3104;50.348;7.620;2022-07-23T10:25:08;6.30;;;5.70;;
6145;SDS011;3104;50.348;7.620;2022-07-23T10:27:47;5.60;;;5.10;;
6145;SDS011;3104;50.348;7.620;2022-07-23T10:30:25;6.10;;;5.70;;
6145;SDS011;3104;50.348;7.620;2022-07-23T10:33:09;6.20;;;5.70;;
6145;SDS011;3104;50.348;7.620;2022-07-23T10:38:55;5.37;;;4.90;;
6145;SDS011;3104;50.348;7.620;2022-07-23T10:41:38;5.20;;;4.73;;
6145;SDS011;3104;50.348;7.620;2022-07-23T10:44:05;5.97;;;5.47;;
6145;SDS011;3104;50.348;7.620;2022-07-23T10:46:31;5.57;;;5.27;;
6145;SDS011;3104;50.348;7.620;2022-07-23T10:49:20;5.97;;;5.50;;
6145;SDS011;3104;50.348;7.620;2022-07-23T10:54:52;4.37;;;4.07;;
6145;SDS011;3104;50.348;7.620;2022-07-23T10:57:28;4.90;;;4.60;;
6145;SDS011;3104;50.348;7.620;2022-07-23T11:02:27;5.37;;;4.97;;
6145;SDS011;3104;50.348;7.620;2022-07-23T11:04:58;4.37;;;4.07;;
6145;SDS011;3104;50.348;7.620;2022-07-23T11:07:25;4.90;;;4.60;;
6145;SDS011;3104;50.348;7.620;2022-07-23T11:09:51;4.67;;;4.37;;
6145;SDS011;3104;50.348;7.620;2022-07-23T11:22:37;4.17;;;3.97;;
6145;SDS011;3104;50.348;7.620;2022-07-23T11:25:03;4.43;;;4.03;;
6145;SDS011;3104;50.348;7.620;2022-07-23T11:30:05;4.67;;;4.23;;
6145;SDS011;3104;50.348;7.620;2022-07-23T11:32:33;4.80;;;4.40;;
6145;SDS011;3104;50.348;7.620;2022-07-23T11:35:06;4.73;;;4.30;;
6145;SDS011;3104;50.348;7.620;2022-07-23T11:37:45;4.60;;;4.30;;
6145;SDS011;3104;50.348;7.620;2022-07-23T11:40:13;4.90;;;4.50;;
6145;SDS011;3104;50.348;7.620;2022-07-23T11:42:54;5.73;;;5.13;;
6145;SDS011;3104;50.348;7.620;2022-07-23T11:45:22;5.37;;;5.00;;
6145;SDS011;3104;50.348;7.620;2022-07-23T11:47:48;4.37;;;4.07;;
6145;SDS011;3104;50.348;7.620;2022-07-23T11:50:14;4.60;;;4.30;;
6145;SDS011;3104;50.348;7.620;2022-07-23T11:52:40;5.70;;;5.20;;
6145;SDS011;3104;50.348;7.620;2022-07-23T11:55:06;5.10;;;4.80;;
6145;SDS011;3104;50.348;7.620;2022-07-23T11:57:35;5.00;;;4.60;;
6145;SDS011;3104;50.348;7.620;2022-07-23T12:00:09;5.13;;;4.73;;
6145;SDS011;3104;50.348;7.620;2022-07-23T12:02:39;5.60;;;5.20;;
6145;SDS011;3104;50.348;7.620;2022-07-23T12:05:16;5.70;;;5.40;;
6145;SDS011;3104;50.348;7.620;2022-07-23T12:07:53;5.00;;;4.80;;
6145;SDS011;3104;50.348;7.620;2022-07-23T12:10:29;5.27;;;4.87;;
6145;SDS011;3104;50.348;7.620;2022-07-23T12:13:00;5.53;;;5.13;;
6145;SDS011;3104;50.348;7.620;2022-07-23T12:15:30;5.57;;;5.17;;
6145;SDS011;3104;50.348;7.620;2022-07-23T12:17:59;5.37;;;5.07;;
6145;SDS011;3104;50.348;7.620;2022-07-23T12:20:27;6.37;;;5.77;;
6145;SDS011;3104;50.348;7.620;2022-07-23T12:22:58;5.23;;;4.80;;
6145;SDS011;3104;50.348;7.620;2022-07-23T12:25:31;5.83;;;5.43;;
6145;SDS011;3104;50.348;7.620;2022-07-23T12:28:06;5.10;;;4.80;;
6145;SDS011;3104;50.348;7.620;2022-07-23T12:30:41;4.93;;;4.50;;
6145;SDS011;3104;50.348;7.620;2022-07-23T12:33:10;5.50;;;5.00;;
6145;SDS011;3104;50.348;7.620;2022-07-23T12:35:38;6.53;;;6.13;;
6145;SDS011;3104;50.348;7.620;2022-07-23T12:38:12;6.00;;;5.50;;
6145;SDS011;3104;50.348;7.620;2022-07-23T12:40:43;5.17;;;4.77;;
6145;SDS011;3104;50.348;7.620;2022-07-23T12:43:18;5.63;;;5.23;;
6145;SDS011;3104;50.348;7.620;2022-07-23T12:45:51;6.20;;;5.70;;
6145;SDS011;3104;50.348;7.620;2022-07-23T12:53:23;5.90;;;5.40;;
6145;SDS011;3104;50.348;7.620;2022-07-23T12:55:58;5.60;;;5.10;;
6145;SDS011;3104;50.348;7.620;2022-07-23T12:58:43;5.40;;;5.00;;
6145;SDS011;3104;50.348;7.620;2022-07-23T13:01:21;6.20;;;5.73;;
6145;SDS011;3104;50.348;7.620;2022-07-23T13:06:25;5.33;;;5.03;;
6145;SDS011;3104;50.348;7.620;2022-07-23T13:08:52;5.20;;;4.80;;
6145;SDS011;3104;50.348;7.620;2022-07-23T13:11:18;5.13;;;4.73;;
6145;SDS011;3104;50.348;7.620;2022-07-23T13:13:43;5.50;;;5.20;;
6145;SDS011;3104;50.348;7.620;2022-07-23T13:16:09;5.37;;;4.97;;
6145;SDS011;3104;50.348;7.620;2022-07-23T13:18:34;5.53;;;5.13;;
6145;SDS011;3104;50.348;7.620;2022-07-23T13:21:00;6.00;;;5.50;;
6145;SDS011;3104;50.348;7.620;2022-07-23T13:23:28;5.83;;;4.40;;
6145;SDS011;3104;50.348;7.620;2022-07-23T13:25:54;5.60;;;5.07;;
6145;SDS011;3104;50.348;7.620;2022-07-23T13:28:20;5.60;;;5.20;;
6145;SDS011;3104;50.348;7.620;2022-07-23T13:30:47;6.47;;;4.83;;
6145;SDS011;3104;50.348;7.620;2022-07-23T13:33:15;5.07;;;4.63;;
6145;SDS011;3104;50.348;7.620;2022-07-23T13:35:45;5.40;;;5.10;;
6145;SDS011;3104;50.348;7.620;2022-07-23T13:38:11;5.20;;;4.90;;
6145;SDS011;3104;50.348;7.620;2022-07-23T13:40:38;5.67;;;5.23;;
6145;SDS011;3104;50.348;7.620;2022-07-23T13:43:08;5.83;;;5.43;;
6145;SDS011;3104;50.348;7.620;2022-07-23T13:45:35;7.57;;;6.40;;
6145;SDS011;3104;50.348;7.620;2022-07-23T13:48:01;5.10;;;4.70;;
6145;SDS011;3104;50.348;7.620;2022-07-23T13:50:27;6.17;;;5.60;;
6145;SDS011;3104;50.348;7.620;2022-07-23T13:52:53;5.67;;;5.27;;
6145;SDS011;3104;50.348;7.620;2022-07-23T13:55:18;5.37;;;4.93;;
6145;SDS011;3104;50.348;7.620;2022-07-23T13:57:44;5.27;;;4.87;;
6145;SDS011;3104;50.348;7.620;2022-07-23T14:00:10;5.27;;;4.87;;
6145;SDS011;3104;50.348;7.620;2022-07-23T14:02:36;5.57;;;5.17;;
6145;SDS011;3104;50.348;7.620;2022-07-23T14:05:04;5.67;;;5.37;;
6145;SDS011;3104;50.348;7.620;2022-07-23T14:07:32;5.20;;;4.83;;
6145;SDS011;3104;50.348;7.620;2022-07-23T14:09:58;6.07;;;5.50;;
6145;SDS011;3104;50.348;7.620;2022-07-23T14:12:23;5.03;;;4.63;;
6145;SDS011;3104;50.348;7.620;2022-07-23T14:14:49;5.97;;;5.50;;
6145;SDS011;3104;50.348;7.620;2022-07-23T14:17:15;6.10;;;5.70;;
6145;SDS011;3104;50.348;7.620;2022-07-23T14:19:41;6.50;;;6.00;;
6145;SDS011;3104;50.348;7.620;2022-07-23T14:22:07;5.83;;;5.43;;
6145;SDS011;3104;50.348;7.620;2022-07-23T14:24:32;6.03;;;5.63;;
6145;SDS011;3104;50.348;7.620;2022-07-23T14:27:02;6.13;;;5.63;;
6145;SDS011;3104;50.348;7.620;2022-07-23T14:29:29;6.33;;;5.83;;
6145;SDS011;3104;50.348;7.620;2022-07-23T14:31:58;6.50;;;6.10;;
6145;SDS011;3104;50.348;7.620;2022-07-23T14:34:24;6.97;;;6.57;;
6145;SDS011;3104;50.348;7.620;2022-07-23T14:36:50;6.57;;;6.07;;
6145;SDS011;3104;50.348;7.620;2022-07-23T14:39:17;6.17;;;5.77;;
6145;SDS011;3104;50.348;7.620;2022-07-23T14:41:43;6.67;;;6.23;;
6145;SDS011;3104;50.348;7.620;2022-07-23T14:44:08;6.43;;;5.97;;
6145;SDS011;3104;50.348;7.620;2022-07-23T14:46:34;5.40;;;5.00;;
6145;SDS011;3104;50.348;7.620;2022-07-23T14:49:00;5.87;;;5.47;;
6145;SDS011;3104;50.348;7.620;2022-07-23T14:51:25;6.70;;;6.20;;
6145;SDS011;3104;50.348;7.620;2022-07-23T14:53:52;7.00;;;6.33;;
6145;SDS011;3104;50.348;7.620;2022-07-23T14:56:18;6.27;;;5.77;;
6145;SDS011;3104;50.348;7.620;2022-07-23T14:58:43;5.77;;;5.40;;
6145;SDS011;3104;50.348;7.620;2022-07-23T15:01:09;6.40;;;5.93;;
6145;SDS011;3104;50.348;7.620;2022-07-23T15:03:35;6.17;;;5.77;;
6145;SDS011;3104;50.348;7.620;2022-07-23T15:06:00;6.00;;;5.60;;
6145;SDS011;3104;50.348;7.620;2022-07-23T15:08:26;5.83;;;5.40;;
6145;SDS011;3104;50.348;7.620;2022-07-23T15:10:52;5.83;;;5.43;;
6145;SDS011;3104;50.348;7.620;2022-07-23T15:13:17;6.17;;;5.57;;
6145;SDS011;3104;50.348;7.620;2022-07-23T15:15:43;6.03;;;5.60;;
6145;SDS011;3104;50.348;7.620;2022-07-23T15:18:09;6.27;;;5.87;;
6145;SDS011;3104;50.348;7.620;2022-07-23T15:20:35;6.17;;;5.63;;
6145;SDS011;3104;50.348;7.620;2022-07-23T15:23:03;5.90;;;5.50;;
6145;SDS011;3104;50.348;7.620;2022-07-23T15:25:29;6.30;;;5.80;;
6145;SDS011;3104;50.348;7.620;2022-07-23T15:27:56;5.53;;;5.13;;
6145;SDS011;3104;50.348;7.620;2022-07-23T15:30:23;5.90;;;5.37;;
6145;SDS011;3104;50.348;7.620;2022-07-23T15:32:50;5.90;;;5.60;;
6145;SDS011;3104;50.348;7.620;2022-07-23T15:35:15;5.97;;;5.53;;
6145;SDS011;3104;50.348;7.620;2022-07-23T15:37:41;6.60;;;6.10;;
6145;SDS011;3104;50.348;7.620;2022-07-23T15:40:07;6.30;;;5.83;;
6145;SDS011;3104;50.348;7.620;2022-07-23T15:42:34;6.13;;;5.80;;